Latest Weather Observations for Nuriootpa

IDS60801

Issued at 10:21 am CST Tuesday 16 August 2022 (issued every 10 minutes, with the page automatically refreshed every 10 minutes)

About weather observations | Map of weather stations | Latest weather observations for SA | Other Formats
Station Details ID: 023373 Name: NURIOOTPA PIRSA Lat: -34.48 Lon: 139.01 Height: 275.0 m
Data from the previous 72 hours. | See also: Recent months at Nuriootpa
Date/Time
CST
Temp
°C
App
Temp
°C
Dew
Point
°C
Rel
Hum
%
Delta-T
°C
Wind Press
QNH
hPa
Press
MSL
hPa
Rain since
9am
mm
Dir  Spd
km/h
Gust
km/h
Spd
kts
Gust
kts
16/10:00am 10.7 7.9 8.6 87 1.0 SW 13 19 7 10 1020.6 1020.9 0.0
16/09:30am 9.8 7.1 9.0 95 0.4 SSW 13 17 7 9 1020.4 1020.7 0.0
16/09:00am 9.4 7.1 9.1 98 0.1 SW 11 15 6 8 1019.9 1020.2 2.0
16/08:30am 8.7 6.3 8.6 99 0.0 SW 11 15 6 8 1019.9 1020.2 2.0
16/08:00am 8.2 5.7 8.1 99 0.0 SW 11 17 6 9 1019.6 1019.9 2.0
16/07:30am 8.1 4.8 8.0 99 0.0 SW 15 20 8 11 1019.2 1019.5 2.0
16/07:00am 7.9 5.3 7.8 99 0.0 SW 11 15 6 8 1018.8 1019.1 2.0
16/06:30am 7.8 4.4 7.7 99 0.0 WSW 15 20 8 11 1018.1 1018.3 1.8
16/06:00am 8.0 4.3 7.9 99 0.0 WSW 17 24 9 13 1017.6 1017.9 1.8
16/05:30am 8.2 5.2 7.9 98 0.1 WSW 13 15 7 8 1017.1 1017.4 1.8
16/05:00am 7.9 4.9 7.6 98 0.1 SW 13 17 7 9 1016.5 1016.8 1.8
16/04:30am 8.5 6.0 8.2 98 0.1 SW 11 19 6 10 1016.1 1016.4 1.8
16/04:00am 8.5 5.2 8.2 98 0.1 WSW 15 20 8 11 1016.0 1016.3 1.8
16/03:30am 8.5 5.2 8.1 97 0.2 WSW 15 22 8 12 1015.9 1016.2 1.8
16/03:00am 8.3 5.4 8.0 98 0.1 W 13 17 7 9 1015.8 1016.1 1.8
16/02:30am 8.5 6.0 8.1 97 0.2 WSW 11 17 6 9 1016.0 1016.3 1.8
16/02:00am 8.5 6.4 8.1 97 0.2 SW 9 17 5 9 1016.0 1016.3 1.8
16/01:30am 8.5 5.5 7.7 95 0.4 WSW 13 19 7 10 1016.0 1016.3 1.8
16/01:00am 8.7 6.6 8.3 97 0.2 WSW 9 11 5 6 1015.7 1016.0 1.2
16/12:30am 8.8 6.0 8.4 97 0.2 SW 13 17 7 9 1015.6 1015.8 1.2
16/12:00am 9.0 6.6 8.6 97 0.2 WSW 11 19 6 10 1015.5 1015.7 1.2
 
Date/Time
CST
Temp
°C
App
Temp
°C
Dew
Point
°C
Rel
Hum
%
Delta-T
°C
Wind Press
QNH
hPa
Press
MSL
hPa
Rain since
9am
mm
Dir  Spd
km/h
Gust
km/h
Spd
kts
Gust
kts
15/11:30pm 8.9 6.1 8.5 97 0.2 WSW 13 17 7 9 1015.2 1015.4 1.2
15/11:00pm 9.0 6.2 8.6 97 0.2 SW 13 17 7 9 1014.9 1015.1 1.2
15/10:30pm 9.1 6.7 8.6 97 0.2 WSW 11 15 6 8 1014.6 1014.8 1.2
15/10:00pm 8.9 6.5 8.6 98 0.1 WSW 11 17 6 9 1014.3 1014.5 1.2
15/09:30pm 8.6 6.1 8.3 98 0.1 W 11 15 6 8 1014.3 1014.5 1.2
15/09:00pm 8.3 5.7 7.9 97 0.2 W 11 13 6 7 1014.1 1014.4 1.2
15/08:30pm 8.4 6.1 7.6 95 0.4 WSW 9 13 5 7 1013.5 1013.8 1.2
15/08:00pm 9.5 6.4 8.9 96 0.3 WSW 15 20 8 11 1013.6 1013.9 1.2
15/07:30pm 9.7 6.2 8.9 95 0.4 WSW 17 24 9 13 1012.9 1013.2 1.2
15/07:00pm 9.7 6.2 8.8 94 0.4 WSW 17 22 9 12 1012.4 1012.6 1.0
15/06:30pm 10.0 6.5 8.9 93 0.6 WSW 17 22 9 12 1011.9 1012.1 1.0
15/06:00pm 10.5 7.1 7.7 83 1.4 WSW 15 22 8 12 1011.4 1011.6 1.0
15/05:30pm 11.1 7.4 8.0 81 1.5 WSW 17 22 9 12 1010.9 1011.1 1.0
15/05:00pm 11.5 7.4 8.0 79 1.7 WSW 19 26 10 14 1010.3 1010.6 1.0
15/04:30pm 11.8 7.4 7.3 74 2.2 WSW 20 26 11 14 1010.0 1010.3 1.0
15/04:00pm 12.6 8.4 8.1 74 2.3 SW 20 24 11 13 1009.7 1010.0 1.0
15/03:30pm 12.8 8.8 8.1 73 2.4 WSW 19 26 10 14 1009.7 1010.0 1.0
15/03:00pm 13.1 9.0 8.6 74 2.3 SW 20 28 11 15 1009.5 1009.8 1.0
15/02:30pm 12.4 8.3 8.7 78 1.9 SW 20 28 11 15 1009.5 1009.8 1.0
15/02:00pm 11.9 8.0 8.7 81 1.6 WSW 19 24 10 13 1009.5 1009.8 1.0
15/01:30pm 10.5 6.3 8.4 87 1.0 WSW 20 28 11 15 1009.7 1010.0 1.0
15/01:00pm 12.3 7.9 9.1 81 1.6 W 22 32 12 17 1009.7 1010.0 0.2
15/12:30pm 12.3 8.7 9.7 84 1.3 WSW 19 30 10 16 1009.9 1010.2 0.2
15/12:00pm 11.5 7.9 8.5 82 1.5 WSW 17 24 9 13 1010.2 1010.5 0.2
15/11:30am 10.9 6.8 8.7 86 1.1 WSW 20 26 11 14 1010.6 1010.8 0.2
15/11:00am 10.5 7.0 8.9 90 0.8 WSW 17 24 9 13 1010.7 1010.9 0.2
15/10:30am 11.6 7.7 9.3 86 1.2 W 20 28 11 15 1010.8 1011.0 0.0
15/10:00am 10.3 6.2 7.9 85 1.2 WNW 19 32 10 17 1011.0 1011.2 0.0
15/09:30am 10.0 6.0 8.3 89 0.8 WNW 19 28 10 15 1011.0 1011.2 0.0
15/09:00am 9.7 6.8 8.1 90 0.8 WNW 13 17 7 9 1011.1 1011.3 0.6
15/08:30am 9.3 6.3 7.9 91 0.7 WNW 13 19 7 10 1011.1 1011.3 0.6
15/08:00am 8.6 5.9 7.4 92 0.6 WNW 11 15 6 8 1010.9 1011.1 0.6
15/07:30am 8.3 5.5 6.9 91 0.7 WNW 11 15 6 8 1010.7 1010.9 0.6
15/07:00am 8.4 5.6 7.0 91 0.7 WNW 11 15 6 8 1010.6 1010.8 0.6
15/06:30am 8.6 5.9 7.5 93 0.5 WNW 11 15 6 8 1010.7 1010.9 0.6
15/06:00am 8.4 5.7 7.5 94 0.4 WNW 11 15 6 8 1010.7 1010.9 0.6
15/05:30am 8.1 5.8 7.3 95 0.4 WNW 9 13 5 7 1010.6 1010.8 0.6
15/05:00am 8.2 5.6 7.6 96 0.3 WNW 11 15 6 8 1010.5 1010.7 0.6
15/04:30am 8.2 6.3 7.4 95 0.4 WNW 7 11 4 6 1010.6 1010.8 0.6
15/04:00am 8.5 6.3 7.7 95 0.4 NW 9 15 5 8 1010.7 1010.9 0.6
15/03:30am 8.6 6.4 8.0 96 0.3 WNW 9 13 5 7 1010.9 1011.1 0.6
15/03:00am 8.3 6.0 7.5 95 0.4 W 9 13 5 7 1011.1 1011.3 0.6
15/02:30am 8.8 5.9 8.2 96 0.3 WNW 13 19 7 10 1011.5 1011.7 0.6
15/02:00am 8.7 5.0 7.9 95 0.4 W 17 22 9 12 1011.9 1012.1 0.6
15/01:30am 9.1 5.3 7.5 90 0.8 WNW 17 26 9 14 1012.3 1012.5 0.4
15/01:00am 8.9 5.1 7.4 90 0.7 W 17 22 9 12 1012.3 1012.5 0.4
15/12:30am 8.7 5.7 7.5 92 0.6 WNW 13 20 7 11 1012.4 1012.6 0.4
15/12:00am 8.6 4.8 7.7 94 0.4 W 17 20 9 11 1012.6 1012.9 0.4
 
Date/Time
CST
Temp
°C
App
Temp
°C
Dew
Point
°C
Rel
Hum
%
Delta-T
°C
Wind Press
QNH
hPa
Press
MSL
hPa
Rain since
9am
mm
Dir  Spd
km/h
Gust
km/h
Spd
kts
Gust
kts
14/11:30pm 8.3 5.3 7.5 95 0.4 W 13 19 7 10 1012.8 1013.1 0.4
14/11:00pm 7.9 6.0 7.5 97 0.2 W 7 11 4 6 1013.2 1013.5 0.4
14/10:30pm 8.0 6.1 7.6 97 0.2 W 7 9 4 5 1013.4 1013.7 0.4
14/10:00pm 7.9 6.0 7.6 98 0.1 WNW 7 11 4 6 1013.6 1013.9 0.4
14/09:30pm 7.1 6.3 6.5 96 0.3 CALM 0 0 0 0 1013.8 1014.1 0.4
14/09:00pm 7.7 5.9 7.1 96 0.3 W 6 7 3 4 1013.9 1014.2 0.4
14/08:30pm 8.3 6.4 7.5 95 0.4 W 7 9 4 5 1014.0 1014.3 0.4
14/08:00pm 8.9 7.1 8.0 94 0.4 W 7 7 4 4 1013.8 1014.1 0.4
14/07:30pm 9.6 7.6 8.5 93 0.5 W 9 9 5 5 1013.7 1014.0 0.4
14/07:00pm 10.1 8.1 8.7 91 0.7 WSW 9 13 5 7 1013.9 1014.2 0.4
14/06:30pm 10.5 7.7 8.6 88 0.9 WSW 13 17 7 9 1013.6 1013.9 0.4
14/06:00pm 10.4 7.1 8.2 86 1.1 WSW 15 20 8 11 1013.4 1013.7 0.4
14/05:30pm 11.0 7.9 8.8 86 1.1 SW 15 22 8 12 1013.4 1013.7 0.4
14/05:00pm 11.4 7.8 8.3 81 1.5 WSW 17 24 9 13 1013.2 1013.5 0.4
14/04:30pm 11.9 7.8 8.0 77 1.9 WSW 19 24 10 13 1013.2 1013.5 0.4
14/04:00pm 12.5 8.5 8.4 76 2.1 SW 19 26 10 14 1013.3 1013.6 0.4
14/03:30pm 13.5 8.8 7.7 68 2.9 WSW 22 32 12 17 1013.4 1013.7 0.4
14/03:00pm 13.5 8.5 7.9 69 2.8 WSW 24 37 13 20 1013.4 1013.7 0.4
14/02:30pm 12.5 9.1 9.0 79 1.8 WSW 17 26 9 14 1013.7 1014.0 0.4
14/02:00pm 11.7 7.3 8.9 83 1.4 WSW 22 33 12 18 1013.9 1014.2 0.4
14/01:30pm 11.7 6.9 8.7 82 1.5 WSW 24 32 13 17 1014.3 1014.5 0.4
14/01:00pm 12.5 8.4 10.2 86 1.2 W 22 33 12 18 1014.5 1014.7 0.4
14/12:30pm 11.0 8.5 9.6 91 0.7 WSW 13 19 7 10 1014.9 1015.1 0.4
14/12:00pm 11.6 8.2 9.3 86 1.2 W 17 26 9 14 1015.1 1015.3 0.0
14/11:30am 11.1 7.6 8.8 86 1.2 W 17 24 9 13 1015.4 1015.6 0.0
14/11:00am 11.6 8.9 10.5 93 0.6 W 15 20 8 11 1015.5 1015.7 0.0
14/10:30am 10.3 6.9 9.1 92 0.6 WSW 17 24 9 13 1015.8 1016.1 0.0
14/10:00am 9.8 6.4 9.2 96 0.3 WSW 17 24 9 13 1015.7 1016.0 0.0
14/09:30am 9.8 6.3 8.9 94 0.4 WSW 17 22 9 12 1015.7 1016.0 0.0
14/09:00am 9.7 6.7 9.2 97 0.3 WSW 15 22 8 12 1015.9 1016.2 5.8
14/08:30am 9.3 6.3 9.2 99 0.1 SW 15 22 8 12 1015.7 1016.0 5.6
14/08:00am 9.1 6.4 9.0 99 0.0 WSW 13 17 7 9 1015.3 1015.5 5.0
14/07:30am 9.0 6.3 8.9 99 0.0 W 13 19 7 10 1015.1 1015.3 4.8
14/07:00am 8.9 5.8 8.8 99 0.0 WSW 15 19 8 10 1014.7 1014.9 4.8
14/06:30am 8.9 5.4 8.8 99 0.0 W 17 24 9 13 1014.3 1014.5 4.8
14/06:00am 8.9 5.8 8.8 99 0.0 WSW 15 20 8 11 1013.9 1014.2 4.8
14/05:30am 9.0 6.3 8.9 99 0.0 WSW 13 17 7 9 1013.7 1014.0 4.8
14/05:00am 9.1 6.4 9.0 99 0.0 WSW 13 19 7 10 1013.7 1014.0 4.6
14/04:30am 9.0 5.9 8.9 99 0.0 W 15 22 8 12 1013.6 1013.9 4.4
14/04:00am 8.9 5.8 8.8 99 0.0 WSW 15 20 8 11 1013.5 1013.8 4.4
14/03:30am 8.9 5.0 8.8 99 0.0 WSW 19 24 10 13 1013.2 1013.5 4.2
14/03:00am 8.9 5.7 8.6 98 0.1 WSW 15 22 8 12 1013.5 1013.8 4.2
14/02:30am 9.0 5.1 8.7 98 0.1 W 19 26 10 14 1013.7 1014.0 4.2
14/02:00am 9.1 5.6 8.8 98 0.1 WSW 17 24 9 13 1014.1 1014.4 4.2
14/01:30am 9.0 5.5 8.7 98 0.1 W 17 24 9 13 1014.1 1014.4 4.2
14/01:00am 9.1 6.0 8.8 98 0.1 WSW 15 22 8 12 1014.3 1014.5 4.2
14/12:30am 9.2 6.4 8.7 97 0.2 WSW 13 19 7 10 1014.4 1014.6 4.2
14/12:00am 9.2 5.7 8.9 98 0.1 WSW 17 24 9 13 1014.4 1014.6 4.2
 
Date/Time
CST
Temp
°C
App
Temp
°C
Dew
Point
°C
Rel
Hum
%
Delta-T
°C
Wind Press
QNH
hPa
Press
MSL
hPa
Rain since
9am
mm
Dir  Spd
km/h
Gust
km/h
Spd
kts
Gust
kts
13/11:30pm 9.4 5.4 8.9 97 0.2 WSW 20 26 11 14 1014.5 1014.7 4.2
13/11:00pm 9.5 6.1 9.2 98 0.2 W 17 24 9 13 1014.5 1014.7 3.8
13/10:30pm 9.5 6.9 9.2 98 0.2 WSW 13 24 7 13 1014.6 1014.8 2.8
13/10:00pm 9.3 6.2 8.8 97 0.2 WSW 15 22 8 12 1014.8 1015.0 2.8
13/09:30pm 9.5 6.1 9.0 97 0.2 WSW 17 22 9 12 1014.7 1014.9 2.8
13/09:00pm 9.5 6.1 9.0 97 0.2 WSW 17 24 9 13 1014.8 1015.0 2.6
13/08:30pm 9.6 6.2 9.1 97 0.3 W 17 24 9 13 1014.6 1014.8 2.4
13/08:00pm 9.4 5.9 8.9 97 0.2 WSW 17 22 9 12 1014.3 1014.5 2.4
13/07:30pm 9.1 5.9 8.5 96 0.3 WSW 15 20 8 11 1014.0 1014.3 2.4
13/07:00pm 9.1 5.9 8.3 95 0.4 W 15 19 8 10 1013.8 1014.1 2.4
13/06:30pm 9.2 5.9 8.1 93 0.5 W 15 20 8 11 1013.4 1013.7 2.4
13/06:00pm 9.8 6.4 7.7 87 1.0 WSW 15 19 8 10 1013.3 1013.6 2.4
13/05:30pm 10.2 6.4 7.4 83 1.4 WSW 17 24 9 13 1013.0 1013.3 2.4
13/05:00pm 10.8 6.1 7.9 82 1.4 WSW 22 28 12 15 1013.0 1013.3 2.4
13/04:30pm 11.6 6.6 7.9 78 1.8 W 24 33 13 18 1012.9 1013.2 2.4
13/04:00pm 12.5 7.5 8.0 74 2.2 WSW 24 33 13 18 1012.5 1012.7 2.4
13/03:30pm 12.4 7.0 8.1 75 2.1 W 26 35 14 19 1012.4 1012.6 2.4
13/03:00pm 13.2 8.3 8.5 73 2.4 WSW 24 37 13 20 1012.4 1012.6 2.4
13/02:30pm 13.1 8.1 9.4 78 1.9 W 26 35 14 19 1012.2 1012.4 2.4
13/02:00pm 12.6 7.6 9.4 81 1.6 W 26 39 14 21 1012.3 1012.5 2.4
13/01:30pm 12.1 7.4 9.3 83 1.4 WSW 24 35 13 19 1012.4 1012.6 2.0
13/01:00pm 11.6 9.5 11.0 96 0.3 SSW 13 17 7 9 1012.9 1013.2 2.0
13/12:30pm 10.9 7.1 9.2 89 0.9 SSW 19 24 10 13 1013.2 1013.5 1.8
13/12:00pm 10.9 7.0 9.5 91 0.7 WSW 20 28 11 15 1013.3 1013.6 1.6
13/11:30am 10.5 5.8 9.1 91 0.7 WSW 24 39 13 21 1013.5 1013.8 1.4
13/11:00am 10.5 5.8 9.4 93 0.6 W 24 35 13 19 1013.6 1013.9 1.2
13/10:30am 10.1 5.3 9.0 93 0.6 W 24 35 13 19 1013.7 1014.0 1.2

Other formats

Comma delimited format used in spreadsheet applications
http://www.bom.gov.au/fwo/IDS60801/IDS60801.94681.axf

JavaScript Object Notation format (JSON) in row-major order
http://www.bom.gov.au/fwo/IDS60801/IDS60801.94681.json

Data quality

Most of these data are generated automatically and are frequently updated. Quality checks on data are not normally performed. It is possible for incorrect values to appear. Refer to information at About Latest Weather Observations and please check the disclaimer before using these data.